createdAt,value
2023-05-14T00:01:15.440Z,11.70
2023-05-14T00:03:42.071Z,9.07
2023-05-14T00:06:09.510Z,9.98
2023-05-14T00:08:36.261Z,12.43
2023-05-14T00:11:02.779Z,10.63
2023-05-14T00:13:29.386Z,13.90
2023-05-14T00:15:55.983Z,15.52
2023-05-14T00:18:22.493Z,11.60
2023-05-14T00:20:49.331Z,13.95
2023-05-14T00:23:15.808Z,10.85
2023-05-14T00:25:42.314Z,13.82
2023-05-14T00:28:08.829Z,14.02
2023-05-14T00:30:35.525Z,15.13
2023-05-14T00:33:02.067Z,16.70
2023-05-14T00:35:28.682Z,14.07
2023-05-14T00:37:55.205Z,12.10
2023-05-14T00:40:25.968Z,12.55
2023-05-14T00:42:53.043Z,13.60
2023-05-14T00:45:19.592Z,11.73
2023-05-14T00:47:46.374Z,11.93
2023-05-14T00:50:14.546Z,10.50
2023-05-14T00:52:41.297Z,12.20
2023-05-14T00:55:08.580Z,13.10
2023-05-14T00:57:36.449Z,12.30
2023-05-14T01:00:04.038Z,10.68
2023-05-14T01:02:30.891Z,10.38
2023-05-14T01:04:57.626Z,9.65
2023-05-14T01:07:42.199Z,11.35
2023-05-14T01:10:11.489Z,17.92
2023-05-14T01:12:40.748Z,8.85
2023-05-14T01:15:22.702Z,11.65
2023-05-14T01:17:55.348Z,11.15
2023-05-14T01:20:22.517Z,10.82
2023-05-14T01:22:49.284Z,11.80
2023-05-14T01:25:15.730Z,11.52
2023-05-14T01:28:28.682Z,11.60
2023-05-14T01:31:07.091Z,10.55
2023-05-14T01:33:36.176Z,9.02
2023-05-14T01:38:31.746Z,10.68
2023-05-14T01:40:59.361Z,11.80
2023-05-14T01:43:26.206Z,12.18
2023-05-14T01:45:55.314Z,9.90
2023-05-14T01:50:48.726Z,9.90
2023-05-14T01:53:16.676Z,10.50
2023-05-14T01:55:43.213Z,13.80
2023-05-14T01:58:09.766Z,11.90
2023-05-14T02:00:36.206Z,10.60
2023-05-14T02:03:02.709Z,10.80
2023-05-14T02:05:29.248Z,10.15
2023-05-14T02:07:56.032Z,10.10
2023-05-14T02:10:22.764Z,12.07
2023-05-14T02:12:49.453Z,8.48
2023-05-14T02:15:15.945Z,10.43
2023-05-14T02:17:42.512Z,9.27
2023-05-14T02:20:10.315Z,10.85
2023-05-14T02:22:37.206Z,10.63
2023-05-14T02:25:03.980Z,8.40
2023-05-14T02:27:30.478Z,11.48
2023-05-14T02:30:00.654Z,10.70
2023-05-14T02:32:28.650Z,10.07
2023-05-14T02:34:55.212Z,8.07
2023-05-14T02:37:21.793Z,9.63
2023-05-14T02:39:49.069Z,8.07
2023-05-14T02:42:15.563Z,11.82
2023-05-14T02:44:42.072Z,9.63
2023-05-14T02:47:08.621Z,8.98
2023-05-14T02:49:35.109Z,8.25
2023-05-14T02:52:01.589Z,9.95
2023-05-14T02:54:28.108Z,9.90
2023-05-14T02:56:54.578Z,9.65
2023-05-14T02:59:21.321Z,7.80
2023-05-14T03:01:48.331Z,10.88
2023-05-14T03:04:15.727Z,10.55
2023-05-14T03:06:42.243Z,10.35
2023-05-14T03:09:08.777Z,10.95
2023-05-14T03:11:35.428Z,9.05
2023-05-14T03:14:01.906Z,9.88
2023-05-14T03:16:28.403Z,11.45
2023-05-14T03:18:54.927Z,9.02
2023-05-14T03:21:21.567Z,14.57
2023-05-14T03:23:48.006Z,9.93
2023-05-14T03:26:14.623Z,9.75
2023-05-14T03:28:41.118Z,10.27
2023-05-14T03:31:07.742Z,10.27
2023-05-14T03:33:34.307Z,10.50
2023-05-14T03:36:00.764Z,12.48
2023-05-14T03:38:27.276Z,11.20
2023-05-14T03:40:53.785Z,11.52
2023-05-14T03:43:20.258Z,13.07
2023-05-14T03:45:47.147Z,13.00
2023-05-14T03:48:13.667Z,9.95
2023-05-14T03:50:40.205Z,10.32
2023-05-14T03:53:06.657Z,11.75
2023-05-14T03:59:13.873Z,10.30
2023-05-14T04:01:40.508Z,10.20
2023-05-14T04:04:07.132Z,9.88
2023-05-14T04:06:33.898Z,11.48
2023-05-14T04:09:00.410Z,10.02
2023-05-14T04:11:26.864Z,11.60
2023-05-14T04:13:53.418Z,12.45
2023-05-14T04:16:19.914Z,9.98
2023-05-14T04:18:46.789Z,9.65
2023-05-14T04:21:13.317Z,10.80
2023-05-14T04:23:39.803Z,9.02
2023-05-14T04:26:06.380Z,9.77
2023-05-14T04:28:32.880Z,10.48
2023-05-14T04:30:59.349Z,9.35
2023-05-14T04:33:25.865Z,10.68
2023-05-14T04:35:52.710Z,9.93
2023-05-14T04:38:19.233Z,11.05
2023-05-14T04:40:45.797Z,10.75
2023-05-14T04:43:12.288Z,10.40
2023-05-14T04:45:38.796Z,10.02
2023-05-14T04:48:07.682Z,11.05
2023-05-14T04:50:34.882Z,11.82
2023-05-14T04:53:01.420Z,12.77
2023-05-14T04:55:27.959Z,12.73
2023-05-14T04:57:54.572Z,11.43
2023-05-14T05:00:22.146Z,13.30
2023-05-14T05:02:48.984Z,13.07
2023-05-14T05:05:15.485Z,11.70
2023-05-14T05:07:41.932Z,13.25
2023-05-14T05:10:08.878Z,15.40
2023-05-14T05:12:35.431Z,12.38
2023-05-14T05:15:02.228Z,11.10
2023-05-14T05:17:29.662Z,11.80
2023-05-14T05:19:56.347Z,11.45
2023-05-14T05:22:23.667Z,10.60
2023-05-14T05:24:50.255Z,11.05
2023-05-14T05:27:16.969Z,11.55
2023-05-14T05:29:44.557Z,14.52
2023-05-14T05:32:11.089Z,12.63
2023-05-14T05:34:37.641Z,11.52
2023-05-14T05:37:05.943Z,12.15
2023-05-14T05:39:34.929Z,13.13
2023-05-14T05:42:02.692Z,12.80
2023-05-14T05:44:29.295Z,13.20
2023-05-14T05:46:57.400Z,14.85
2023-05-14T05:49:24.048Z,12.82
2023-05-14T05:51:50.700Z,12.75
2023-05-14T05:54:17.234Z,13.80
2023-05-14T05:56:43.768Z,11.63
2023-05-14T05:59:10.305Z,15.00
2023-05-14T06:01:37.270Z,13.13
2023-05-14T06:04:06.212Z,12.45
2023-05-14T06:08:59.523Z,13.02
2023-05-14T06:11:26.566Z,13.38
2023-05-14T06:13:53.107Z,13.57
2023-05-14T06:16:19.738Z,12.80
2023-05-14T06:18:46.539Z,11.52
2023-05-14T06:21:13.121Z,16.10
2023-05-14T06:23:39.924Z,14.65
2023-05-14T06:26:06.434Z,13.35
2023-05-14T06:28:32.940Z,15.00
2023-05-14T06:30:59.408Z,16.55
2023-05-14T06:33:30.811Z,16.80
2023-05-14T06:36:01.075Z,13.20
2023-05-14T06:38:27.684Z,16.23
2023-05-14T06:40:54.234Z,15.18
2023-05-14T06:43:20.895Z,14.10
2023-05-14T06:45:51.343Z,14.30
2023-05-14T06:48:19.185Z,14.57
2023-05-14T06:50:47.178Z,14.25
2023-05-14T06:53:14.226Z,12.93
2023-05-14T06:55:41.140Z,15.82
2023-05-14T06:58:08.192Z,14.73
2023-05-14T07:00:34.923Z,12.38
2023-05-14T07:03:01.596Z,13.10
2023-05-14T07:05:28.128Z,11.88
2023-05-14T07:07:54.712Z,10.70
2023-05-14T07:10:21.415Z,14.00
2023-05-14T07:12:48.648Z,12.73
2023-05-14T07:15:15.137Z,14.95
2023-05-14T07:17:41.677Z,13.98
2023-05-14T07:20:08.694Z,13.45
2023-05-14T07:22:35.376Z,16.02
2023-05-14T07:25:02.841Z,10.45
2023-05-14T07:27:29.359Z,13.18
2023-05-14T07:29:56.166Z,12.18
2023-05-14T07:32:24.260Z,10.77
2023-05-14T07:34:50.834Z,9.57
2023-05-14T07:37:17.345Z,10.63
2023-05-14T07:39:43.823Z,10.93
2023-05-14T07:42:10.299Z,12.18
2023-05-14T07:44:36.854Z,12.52
2023-05-14T07:47:04.259Z,9.52
2023-05-14T07:49:30.812Z,9.63
2023-05-14T07:51:57.292Z,14.80
2023-05-14T07:54:23.788Z,9.93
2023-05-14T07:56:50.337Z,9.50
2023-05-14T07:59:16.863Z,7.63
2023-05-14T08:01:43.381Z,7.07
2023-05-14T08:04:11.812Z,7.82
2023-05-14T08:09:07.425Z,9.10
2023-05-14T08:11:34.949Z,7.55
2023-05-14T08:14:01.520Z,11.10
2023-05-14T08:16:28.078Z,8.05
2023-05-14T08:18:54.698Z,7.32
2023-05-14T08:21:21.177Z,7.10
2023-05-14T08:23:47.666Z,9.98
2023-05-14T08:26:14.127Z,7.75
2023-05-14T08:28:40.605Z,6.60
2023-05-14T08:31:07.141Z,5.57
2023-05-14T08:33:33.603Z,6.30
2023-05-14T08:36:00.620Z,9.57
2023-05-14T08:38:27.176Z,5.43
2023-05-14T08:41:00.607Z,7.43
2023-05-14T08:43:35.434Z,6.95
2023-05-14T08:46:05.855Z,10.30
2023-05-14T08:48:34.142Z,8.57
2023-05-14T08:53:27.426Z,7.78
2023-05-14T08:55:54.232Z,7.38
2023-05-14T08:58:20.788Z,6.80
2023-05-14T09:00:47.768Z,6.78
2023-05-14T09:03:15.005Z,8.93
2023-05-14T09:05:41.971Z,6.68
2023-05-14T09:08:08.497Z,8.75
2023-05-14T09:10:34.987Z,6.93
2023-05-14T09:13:01.502Z,8.07
2023-05-14T09:15:29.051Z,7.22
2023-05-14T09:17:56.783Z,9.25
2023-05-14T09:20:24.775Z,9.10
2023-05-14T09:22:54.838Z,9.43
2023-05-14T09:25:27.465Z,9.07
2023-05-14T09:27:57.280Z,8.40
2023-05-14T09:30:26.726Z,9.18
2023-05-14T09:36:13.289Z,12.40
2023-05-14T09:38:58.056Z,9.45
2023-05-14T09:41:24.877Z,6.82
2023-05-14T09:43:51.827Z,5.45
2023-05-14T09:46:18.380Z,5.95
2023-05-14T09:51:32.217Z,6.15
2023-05-14T09:53:58.875Z,6.53
2023-05-14T09:56:26.180Z,6.97
2023-05-14T09:58:52.759Z,5.60
2023-05-14T10:01:20.715Z,5.53
2023-05-14T10:03:47.671Z,6.95
2023-05-14T10:06:17.645Z,6.85
2023-05-14T10:08:46.622Z,4.95
2023-05-14T10:11:15.572Z,6.35
2023-05-14T10:13:50.052Z,6.97
2023-05-14T10:18:51.853Z,7.70
2023-05-14T10:21:20.943Z,6.90
2023-05-14T10:23:49.081Z,4.75
2023-05-14T10:26:16.179Z,5.10
2023-05-14T10:28:43.649Z,7.18
2023-05-14T10:31:10.548Z,4.40
2023-05-14T10:33:49.868Z,5.10
2023-05-14T10:36:20.351Z,5.63
2023-05-14T10:38:47.016Z,6.18
2023-05-14T10:41:18.162Z,5.50
2023-05-14T10:43:45.066Z,5.00
2023-05-14T10:46:13.916Z,7.55
2023-05-14T10:48:44.432Z,4.30
2023-05-14T10:51:11.874Z,4.53
2023-05-14T10:53:43.521Z,7.25
2023-05-14T10:56:12.227Z,6.78
2023-05-14T10:58:43.343Z,4.05
2023-05-14T11:01:12.221Z,5.60
2023-05-14T11:03:42.078Z,6.97
2023-05-14T11:06:10.126Z,4.65
2023-05-14T11:08:37.159Z,6.40
2023-05-14T11:11:03.680Z,6.22
2023-05-14T11:13:30.281Z,6.38
2023-05-14T11:16:02.219Z,6.32
2023-05-14T11:18:38.600Z,5.75
2023-05-14T11:21:05.271Z,5.97
2023-05-14T11:23:31.893Z,5.63
2023-05-14T11:25:58.467Z,7.93
2023-05-14T11:28:26.718Z,4.88
2023-05-14T11:33:21.134Z,6.30
2023-05-14T11:35:48.405Z,4.88
2023-05-14T11:38:19.388Z,9.30
2023-05-14T11:40:55.999Z,4.22
2023-05-14T11:43:28.420Z,5.15
2023-05-14T11:45:55.582Z,7.18
2023-05-14T11:48:22.991Z,6.55
2023-05-14T11:50:50.916Z,4.45
2023-05-14T11:53:26.413Z,4.85
2023-05-14T11:55:54.632Z,4.32
2023-05-14T12:00:52.007Z,9.20
2023-05-14T12:03:25.862Z,4.80
2023-05-14T12:06:00.525Z,4.10
2023-05-14T12:10:54.880Z,5.55
2023-05-14T12:13:21.835Z,4.43
2023-05-14T12:15:55.694Z,6.75
2023-05-14T12:18:25.238Z,5.47
2023-05-14T12:20:52.174Z,4.15
2023-05-14T12:23:32.125Z,4.53
2023-05-14T12:26:06.703Z,3.45
2023-05-14T12:28:38.087Z,4.93
2023-05-14T12:31:05.644Z,3.97
2023-05-14T12:33:32.226Z,4.03
2023-05-14T12:36:09.901Z,5.43
2023-05-14T12:38:41.306Z,5.10
2023-05-14T12:41:07.888Z,4.00
2023-05-14T12:43:34.349Z,7.25
2023-05-14T12:46:00.868Z,4.07
2023-05-14T12:48:27.464Z,7.07
2023-05-14T12:50:53.988Z,5.80
2023-05-14T12:53:20.686Z,6.30
2023-05-14T12:55:47.217Z,5.57
2023-05-14T12:58:13.773Z,6.10
2023-05-14T13:00:40.266Z,4.97
2023-05-14T13:03:06.788Z,6.38
2023-05-14T13:05:33.393Z,4.00
2023-05-14T13:08:02.230Z,5.15
2023-05-14T13:10:28.695Z,6.15
2023-05-14T13:12:56.329Z,6.47
2023-05-14T13:15:23.093Z,5.88
2023-05-14T13:17:49.727Z,4.05
2023-05-14T13:20:18.233Z,3.70
2023-05-14T13:22:45.023Z,4.70
2023-05-14T13:25:11.565Z,4.18
2023-05-14T13:27:38.090Z,4.47
2023-05-14T13:30:04.939Z,5.63
2023-05-14T13:32:31.433Z,4.80
2023-05-14T13:34:57.979Z,6.60
2023-05-14T13:37:25.716Z,4.28
2023-05-14T13:39:52.208Z,4.57
2023-05-14T13:42:18.693Z,7.32
2023-05-14T13:44:45.146Z,4.85
2023-05-14T13:47:11.645Z,3.95
2023-05-14T13:49:38.092Z,6.15
2023-05-14T13:52:07.646Z,4.97
2023-05-14T13:54:34.135Z,5.35
2023-05-14T13:57:00.682Z,3.60
2023-05-14T13:59:27.826Z,3.58
2023-05-14T14:01:54.438Z,5.97
2023-05-14T14:04:21.041Z,4.28
2023-05-14T14:06:47.582Z,6.72
2023-05-14T14:09:14.479Z,4.03
2023-05-14T14:11:41.346Z,6.95
2023-05-14T14:14:07.809Z,6.22
2023-05-14T14:16:34.289Z,3.90
2023-05-14T14:19:00.930Z,4.88
2023-05-14T14:21:27.554Z,3.38
2023-05-14T14:23:54.290Z,4.82
2023-05-14T14:26:21.253Z,4.45
2023-05-14T14:28:47.771Z,5.05
2023-05-14T14:31:14.378Z,5.72
2023-05-14T14:33:41.051Z,4.63
2023-05-14T14:36:07.720Z,4.70
2023-05-14T14:38:34.342Z,4.20
2023-05-14T14:41:03.133Z,7.07
2023-05-14T14:43:29.837Z,4.40
2023-05-14T14:45:56.309Z,4.75
2023-05-14T14:48:26.944Z,7.97
2023-05-14T14:50:54.990Z,5.60
2023-05-14T14:53:22.537Z,9.40
2023-05-14T14:55:49.824Z,4.80
2023-05-14T14:58:18.027Z,7.28
2023-05-14T15:05:37.939Z,5.57
2023-05-14T15:08:04.881Z,7.50
2023-05-14T15:10:31.886Z,5.22
2023-05-14T15:12:59.249Z,6.22
2023-05-14T15:15:26.581Z,4.07
2023-05-14T15:17:53.454Z,4.90
2023-05-14T15:20:20.014Z,5.90
2023-05-14T15:22:46.600Z,6.47
2023-05-14T15:25:13.054Z,4.43
2023-05-14T15:27:39.521Z,6.07
2023-05-14T15:30:07.307Z,5.57
2023-05-14T15:32:34.066Z,4.43
2023-05-14T15:35:01.095Z,8.77
2023-05-14T15:37:27.639Z,7.53
2023-05-14T15:39:54.213Z,7.30
2023-05-14T15:42:21.171Z,5.95
2023-05-14T15:44:47.645Z,5.35
2023-05-14T15:47:14.147Z,5.82
2023-05-14T15:49:40.715Z,4.80
2023-05-14T15:52:07.523Z,3.70
2023-05-14T15:54:33.995Z,6.28
2023-05-14T15:57:00.983Z,6.20
2023-05-14T15:59:27.542Z,6.10
2023-05-14T16:01:54.129Z,6.10
2023-05-14T16:04:20.811Z,8.20
2023-05-14T16:06:47.337Z,9.50
2023-05-14T16:09:14.079Z,4.80
2023-05-14T16:11:40.654Z,5.70
2023-05-14T16:14:07.275Z,6.68
2023-05-14T16:16:33.835Z,4.18
2023-05-14T16:19:00.396Z,4.88
2023-05-14T16:21:27.403Z,7.22
2023-05-14T16:23:53.945Z,5.70
2023-05-14T16:26:21.038Z,6.90
2023-05-14T16:28:48.111Z,5.07
2023-05-14T16:31:15.441Z,7.68
2023-05-14T16:33:42.044Z,6.65
2023-05-14T16:36:09.042Z,8.48
2023-05-14T16:38:38.716Z,6.20
2023-05-14T16:41:11.458Z,6.10
2023-05-14T16:43:37.987Z,6.65
2023-05-14T16:46:05.990Z,5.10
2023-05-14T16:48:32.520Z,9.60
2023-05-14T16:50:59.551Z,6.10
2023-05-14T16:53:26.477Z,6.20
2023-05-14T16:55:53.099Z,9.20
2023-05-14T16:58:19.640Z,6.18
2023-05-14T17:00:46.168Z,5.90
2023-05-14T17:03:12.737Z,6.13
2023-05-14T17:05:39.311Z,5.70
2023-05-14T17:08:06.439Z,7.30
2023-05-14T17:10:33.319Z,9.10
2023-05-14T17:13:00.433Z,6.47
2023-05-14T17:15:26.957Z,8.68
2023-05-14T17:17:54.186Z,6.22
2023-05-14T17:20:20.867Z,7.03
2023-05-14T17:22:47.507Z,4.38
2023-05-14T17:25:14.119Z,6.07
2023-05-14T17:27:40.683Z,6.40
2023-05-14T17:30:07.872Z,7.90
2023-05-14T17:32:34.566Z,8.45
2023-05-14T17:35:01.316Z,5.75
2023-05-14T17:37:27.837Z,5.93
2023-05-14T17:39:55.551Z,7.38
2023-05-14T17:42:22.099Z,9.07
2023-05-14T17:44:48.651Z,8.10
2023-05-14T17:47:15.550Z,7.45
2023-05-14T17:49:42.088Z,6.35
2023-05-14T17:52:08.681Z,8.35
2023-05-14T17:54:35.141Z,8.32
2023-05-14T17:57:01.945Z,5.35
2023-05-14T17:59:28.555Z,5.13
2023-05-14T18:01:55.043Z,11.00
2023-05-14T18:04:21.566Z,6.03
2023-05-14T18:06:48.120Z,5.38
2023-05-14T18:09:15.211Z,5.40
2023-05-14T18:11:41.766Z,6.47
2023-05-14T18:14:08.456Z,8.20
2023-05-14T18:16:36.474Z,6.97
2023-05-14T18:19:03.080Z,5.57
2023-05-14T18:21:29.590Z,6.75
2023-05-14T18:23:56.135Z,5.22
2023-05-14T18:26:23.127Z,6.35
2023-05-14T18:28:49.704Z,6.70
2023-05-14T18:31:16.287Z,5.70
2023-05-14T18:33:43.175Z,6.75
2023-05-14T18:36:09.729Z,5.13
2023-05-14T18:38:36.221Z,5.30
2023-05-14T18:41:02.969Z,5.07
2023-05-14T18:43:29.434Z,8.27
2023-05-14T18:45:56.065Z,7.40
2023-05-14T18:48:23.248Z,6.20
2023-05-14T18:50:49.741Z,7.30
2023-05-14T18:53:16.418Z,5.93
2023-05-14T18:55:43.027Z,5.13
2023-05-14T18:58:11.606Z,7.53
2023-05-14T19:03:04.525Z,7.90
2023-05-14T19:05:31.241Z,7.78
2023-05-14T19:07:57.876Z,7.18
2023-05-14T19:10:24.421Z,9.45
2023-05-14T19:12:50.906Z,8.77
2023-05-14T19:15:17.447Z,6.40
2023-05-14T19:17:44.833Z,6.40
2023-05-14T19:20:11.866Z,6.30
2023-05-14T19:22:38.361Z,5.60
2023-05-14T19:25:06.900Z,6.60
2023-05-14T19:27:34.488Z,8.15
2023-05-14T19:30:00.962Z,5.50
2023-05-14T19:32:27.595Z,8.68
2023-05-14T19:34:54.093Z,8.52
2023-05-14T19:37:21.300Z,6.97
2023-05-14T19:39:47.842Z,6.45
2023-05-14T19:42:14.320Z,6.18
2023-05-14T19:44:40.814Z,7.38
2023-05-14T19:47:07.775Z,5.82
2023-05-14T19:49:34.424Z,7.50
2023-05-14T19:52:07.031Z,6.70
2023-05-14T19:54:45.471Z,8.90
2023-05-14T19:57:23.947Z,5.70
2023-05-14T19:59:50.410Z,7.15
2023-05-14T20:02:21.665Z,7.45
2023-05-14T20:04:48.609Z,11.88
2023-05-14T20:07:15.653Z,8.05
2023-05-14T20:09:42.377Z,5.88
2023-05-14T20:12:09.575Z,6.70
2023-05-14T20:14:36.200Z,8.45
2023-05-14T20:17:03.570Z,6.78
2023-05-14T20:19:30.355Z,5.68
2023-05-14T20:21:56.950Z,6.75
2023-05-14T20:24:23.490Z,6.97
2023-05-14T20:26:50.450Z,9.65
2023-05-14T20:29:16.993Z,6.38
2023-05-14T20:31:43.518Z,6.13
2023-05-14T20:34:10.033Z,7.35
2023-05-14T20:36:37.393Z,8.60
2023-05-14T20:39:06.128Z,9.60
2023-05-14T20:43:59.152Z,7.82
2023-05-14T20:46:29.107Z,7.30
2023-05-14T20:48:56.866Z,7.03
2023-05-14T20:51:23.377Z,10.15
2023-05-14T20:53:49.857Z,9.55
2023-05-14T20:56:16.392Z,8.27
2023-05-14T20:58:42.828Z,7.18
2023-05-14T21:01:09.592Z,8.65
2023-05-14T21:03:36.302Z,6.95
2023-05-14T21:06:03.253Z,7.63
2023-05-14T21:08:32.502Z,8.70
2023-05-14T21:10:59.071Z,9.90
2023-05-14T21:13:25.553Z,6.38
2023-05-14T21:15:52.147Z,6.68
2023-05-14T21:18:18.651Z,8.57
2023-05-14T21:20:45.107Z,8.93
2023-05-14T21:23:12.653Z,8.20
2023-05-14T21:25:39.216Z,7.38
2023-05-14T21:28:05.686Z,8.70
2023-05-14T21:30:32.247Z,7.03
2023-05-14T21:32:58.790Z,8.40
2023-05-14T21:35:25.632Z,7.82
2023-05-14T21:37:52.444Z,8.15
2023-05-14T21:40:19.001Z,6.78
2023-05-14T21:42:45.544Z,12.02
2023-05-14T21:45:12.062Z,10.85
2023-05-14T21:47:39.089Z,10.60
2023-05-14T21:50:06.839Z,7.55
2023-05-14T21:52:33.776Z,9.30
2023-05-14T21:55:00.411Z,10.85
2023-05-14T21:57:28.414Z,9.57
2023-05-14T21:59:55.397Z,9.95
2023-05-14T22:02:21.983Z,11.23
2023-05-14T22:04:48.464Z,10.00
2023-05-14T22:07:14.964Z,9.07
2023-05-14T22:09:41.531Z,8.75
2023-05-14T22:12:08.148Z,9.25
2023-05-14T22:14:34.640Z,10.98
2023-05-14T22:17:01.118Z,12.75
2023-05-14T22:19:28.054Z,12.93
2023-05-14T22:21:54.606Z,12.60
2023-05-14T22:24:21.094Z,12.88
2023-05-14T22:26:47.656Z,15.77
2023-05-14T22:29:14.164Z,13.07
2023-05-14T22:31:40.647Z,12.68
2023-05-14T22:34:07.232Z,12.18
2023-05-14T22:36:33.722Z,14.05
2023-05-14T22:39:00.223Z,13.20
2023-05-14T22:41:26.767Z,12.73
2023-05-14T22:43:53.210Z,13.30
2023-05-14T22:46:21.131Z,14.68
2023-05-14T22:48:49.165Z,15.15
2023-05-14T22:51:16.298Z,15.85
2023-05-14T22:53:42.778Z,16.15
2023-05-14T22:56:09.240Z,15.43
2023-05-14T22:58:35.913Z,17.02
2023-05-14T23:01:02.437Z,20.67
2023-05-14T23:03:29.626Z,15.23
2023-05-14T23:05:56.123Z,15.45
2023-05-14T23:08:22.625Z,16.13
2023-05-14T23:10:49.096Z,17.42
2023-05-14T23:13:15.664Z,17.25
2023-05-14T23:15:42.991Z,14.43
2023-05-14T23:18:09.618Z,18.25
2023-05-14T23:20:36.174Z,18.52
2023-05-14T23:23:02.659Z,16.98
2023-05-14T23:25:29.207Z,17.58
2023-05-14T23:27:55.719Z,18.70
2023-05-14T23:30:22.323Z,18.52
2023-05-14T23:32:48.842Z,19.60
2023-05-14T23:35:15.551Z,18.33
2023-05-14T23:37:47.064Z,18.23
2023-05-14T23:40:14.176Z,18.05
2023-05-14T23:42:40.732Z,19.00
2023-05-14T23:45:07.856Z,18.30
2023-05-14T23:47:34.712Z,21.77
2023-05-14T23:50:01.214Z,18.17
2023-05-14T23:52:27.665Z,20.15
2023-05-14T23:54:54.335Z,15.77
2023-05-14T23:57:20.941Z,17.20
2023-05-14T23:59:47.664Z,15.70
